Time;durP1;ratioP1;P1;durP2;ratioP2;P2;SDS_P1;SDS_P2;PMS_P1;PMS_P2;Temp;Humidity;BMP_temperature;BMP_pressure;BME280_temperature;BME280_humidity;BME280_pressure;Samples;Min_cycle;Max_cycle;Signal;HPM_P1;HPM_P2
2022/07/22 04:26:57;;;;;;;;;;;26.90;64.20;;;;;;5603149;23;19926;-78
2022/07/22 04:29:24;;;;;;;;;;;26.90;64.20;;;;;;5000127;28;19976;-78
2022/07/22 04:31:51;;;;;;;;;;;26.90;64.30;;;;;;5000495;28;19976;-78
2022/07/22 04:34:18;;;;;;;;;;;26.90;64.30;;;;;;5001268;28;19961;-79
2022/07/22 04:36:44;;;;;;;;;;;26.90;64.30;;;;;;5007477;28;19933;-80
2022/07/22 04:39:11;;;;;;;;;;;26.90;64.40;;;;;;5001070;28;19982;-79
2022/07/22 04:41:38;;;;;;;;;;;26.90;64.40;;;;;;4996599;28;19971;-77
2022/07/22 04:44:06;;;;;;;;;;;27.00;64.30;;;;;;4997697;28;20370;-78
2022/07/22 04:46:32;;;;;;;;;;;26.90;64.00;;;;;;4996460;28;19968;-77
2022/07/22 04:48:59;;;;;;;;;;;26.90;63.70;;;;;;4995465;28;20012;-78
2022/07/22 04:51:26;;;;;;;;;;;26.90;63.50;;;;;;4995698;28;20371;-78
2022/07/22 04:53:52;;;;;;;;;;;26.80;63.10;;;;;;4996105;28;19926;-78
2022/07/22 04:56:19;;;;;;;;;;;26.80;62.60;;;;;;4995938;28;20016;-78
2022/07/22 04:58:49;;;;;;;;;;;26.70;62.40;;;;;;4996963;28;19972;-78
2022/07/22 05:01:17;;;;;;;;;;;26.70;62.40;;;;;;4995218;28;20020;-76
2022/07/22 05:03:44;;;;;;;;;;;26.70;62.40;;;;;;4995404;28;19925;-77
2022/07/22 05:06:11;;;;;;;;;;;26.70;62.00;;;;;;4995420;28;19992;-77
2022/07/22 05:08:37;;;;;;;;;;;26.70;61.70;;;;;;4995417;28;20021;-76
2022/07/22 05:11:04;;;;;;;;;;;26.60;61.30;;;;;;4995064;28;20033;-74
2022/07/22 05:13:31;;;;;;;;;;;26.60;60.90;;;;;;4995263;28;19930;-76
2022/07/22 05:15:57;;;;;;;;;;;26.60;60.70;;;;;;4995058;28;20432;-77
2022/07/22 05:18:25;;;;;;;;;;;26.60;60.40;;;;;;4995396;28;19988;-78
2022/07/22 05:20:52;;;;;;;;;;;26.60;60.10;;;;;;4996438;28;20017;-78
2022/07/22 05:23:19;;;;;;;;;;;26.60;59.70;;;;;;4995488;28;19961;-77
2022/07/22 05:25:45;;;;;;;;;;;26.60;59.50;;;;;;4995004;28;20457;-78
2022/07/22 05:28:12;;;;;;;;;;;26.60;59.20;;;;;;4996587;28;19976;-79
2022/07/22 05:30:39;;;;;;;;;;;26.50;58.90;;;;;;4996346;28;20369;-79
2022/07/22 05:33:06;;;;;;;;;;;26.50;58.70;;;;;;4995359;28;19930;-78
2022/07/22 05:35:34;;;;;;;;;;;26.50;58.40;;;;;;4996105;28;19976;-78
2022/07/22 05:38:00;;;;;;;;;;;26.50;58.10;;;;;;4995014;28;20415;-78
2022/07/22 05:40:28;;;;;;;;;;;26.50;57.90;;;;;;4994953;28;20021;-78
2022/07/22 05:42:55;;;;;;;;;;;26.50;57.70;;;;;;4997093;28;19926;-80
2022/07/22 05:45:21;;;;;;;;;;;26.50;57.40;;;;;;4999163;28;19930;-79
2022/07/22 05:47:48;;;;;;;;;;;26.50;57.10;;;;;;4999393;28;20389;-79
2022/07/22 05:50:15;;;;;;;;;;;26.50;56.90;;;;;;4997999;28;19976;-78
2022/07/22 05:52:43;;;;;;;;;;;26.40;56.90;;;;;;4998130;28;19980;-79
2022/07/22 05:55:10;;;;;;;;;;;26.40;56.90;;;;;;5003088;28;19926;-78
2022/07/22 05:57:36;;;;;;;;;;;26.40;56.80;;;;;;4996967;28;19957;-79
2022/07/22 06:00:03;;;;;;;;;;;26.40;56.50;;;;;;4999451;28;20388;-80
2022/07/22 06:02:30;;;;;;;;;;;26.40;56.30;;;;;;5001557;28;19937;-80
2022/07/22 06:04:57;;;;;;;;;;;26.40;56.20;;;;;;5000985;28;19960;-80
2022/07/22 06:07:25;;;;;;;;;;;26.40;56.10;;;;;;5000710;28;19926;-80
2022/07/22 06:09:53;;;;;;;;;;;26.40;56.00;;;;;;5001648;28;19929;-79
2022/07/22 06:12:20;;;;;;;;;;;26.50;55.90;;;;;;4999343;28;19953;-80
2022/07/22 06:14:47;;;;;;;;;;;26.40;55.70;;;;;;5000295;28;20378;-79
2022/07/22 06:17:14;;;;;;;;;;;26.40;55.70;;;;;;5002756;28;19932;-80
2022/07/22 06:19:40;;;;;;;;;;;26.40;55.50;;;;;;4995841;28;20340;-78
2022/07/22 06:22:07;;;;;;;;;;;26.40;55.40;;;;;;4995017;28;20008;-77
2022/07/22 06:24:34;;;;;;;;;;;26.40;55.40;;;;;;4994063;28;20024;-76
2022/07/22 06:27:02;;;;;;;;;;;26.50;55.30;;;;;;4994272;28;20016;-77
2022/07/22 06:29:28;;;;;;;;;;;26.50;55.30;;;;;;4993876;28;19926;-76
2022/07/22 06:31:55;;;;;;;;;;;26.40;55.10;;;;;;4997178;28;19987;-76
2022/07/22 06:34:22;;;;;;;;;;;26.50;55.10;;;;;;4998419;28;20309;-76
2022/07/22 06:36:49;;;;;;;;;;;26.50;55.10;;;;;;4998245;28;19973;-76
2022/07/22 06:39:15;;;;;;;;;;;26.50;55.00;;;;;;4998273;28;20013;-76
2022/07/22 06:41:42;;;;;;;;;;;26.50;55.00;;;;;;4998299;28;20037;-77
2022/07/22 06:44:10;;;;;;;;;;;26.50;55.00;;;;;;4998100;28;19961;-76
2022/07/22 06:46:37;;;;;;;;;;;26.50;54.90;;;;;;4999824;28;19957;-80
2022/07/22 06:49:03;;;;;;;;;;;26.50;54.80;;;;;;5001437;28;19957;-80
2022/07/22 06:51:30;;;;;;;;;;;26.50;54.70;;;;;;5001905;28;19961;-80
2022/07/22 06:53:57;;;;;;;;;;;26.50;54.70;;;;;;5001307;28;19972;-80
2022/07/22 06:56:23;;;;;;;;;;;26.50;54.70;;;;;;5001756;28;20342;-80
2022/07/22 06:58:50;;;;;;;;;;;26.50;54.60;;;;;;5001239;28;19950;-80
2022/07/22 07:01:18;;;;;;;;;;;26.50;54.60;;;;;;4999514;28;20428;-80
2022/07/22 07:03:45;;;;;;;;;;;26.50;54.50;;;;;;5000178;28;19926;-80
2022/07/22 07:06:12;;;;;;;;;;;26.50;54.50;;;;;;4999226;28;20013;-80
2022/07/22 07:08:39;;;;;;;;;;;26.50;54.40;;;;;;5000812;28;19967;-80
2022/07/22 07:11:05;;;;;;;;;;;26.50;54.40;;;;;;5001596;28;19972;-80
2022/07/22 07:13:32;;;;;;;;;;;26.50;54.40;;;;;;5000206;28;20018;-80
2022/07/22 07:15:59;;;;;;;;;;;26.50;54.30;;;;;;5001079;28;20296;-80
2022/07/22 07:18:27;;;;;;;;;;;26.50;54.20;;;;;;5001643;28;19977;-79
2022/07/22 07:20:54;;;;;;;;;;;26.50;54.20;;;;;;5001897;28;20354;-79
2022/07/22 07:23:21;;;;;;;;;;;26.50;54.20;;;;;;5002696;28;20288;-79
2022/07/22 07:25:48;;;;;;;;;;;26.50;54.10;;;;;;5001450;28;19957;-79
2022/07/22 07:28:14;;;;;;;;;;;26.50;54.10;;;;;;4998685;28;19929;-80
2022/07/22 07:30:42;;;;;;;;;;;26.50;54.10;;;;;;4998579;28;19969;-80
2022/07/22 07:33:08;;;;;;;;;;;26.50;54.10;;;;;;4998374;28;20025;-80
2022/07/22 07:35:36;;;;;;;;;;;26.50;54.00;;;;;;4997837;28;20474;-80
2022/07/22 07:38:03;;;;;;;;;;;26.50;54.50;;;;;;4998032;28;19972;-80
2022/07/22 07:40:30;;;;;;;;;;;26.50;54.00;;;;;;4997760;28;20013;-80
2022/07/22 07:42:57;;;;;;;;;;;26.50;53.90;;;;;;4996925;28;19965;-80
2022/07/22 07:45:23;;;;;;;;;;;26.50;53.90;;;;;;4998260;28;20029;-80
2022/07/22 07:47:50;;;;;;;;;;;26.50;53.80;;;;;;4998613;28;19926;-80
2022/07/22 07:50:17;;;;;;;;;;;26.60;53.90;;;;;;4998348;28;19976;-80
2022/07/22 07:52:47;;;;;;;;;;;26.60;53.90;;;;;;5000932;28;19969;-80
2022/07/22 07:55:14;;;;;;;;;;;26.60;53.90;;;;;;5000763;28;19929;-80
2022/07/22 07:57:40;;;;;;;;;;;26.60;53.80;;;;;;4999549;28;19965;-80
2022/07/22 08:00:09;;;;;;;;;;;26.60;53.80;;;;;;4998649;28;20384;-80
2022/07/22 08:02:36;;;;;;;;;;;26.60;53.80;;;;;;4999732;28;19930;-80
2022/07/22 08:05:03;;;;;;;;;;;26.60;53.80;;;;;;4999142;28;19969;-80
2022/07/22 08:07:30;;;;;;;;;;;26.60;53.70;;;;;;4998798;28;19965;-80
2022/07/22 08:09:58;;;;;;;;;;;26.60;53.70;;;;;;4999873;28;19926;-80
2022/07/22 08:12:24;;;;;;;;;;;26.60;53.70;;;;;;5000311;28;19980;-80
2022/07/22 08:14:51;;;;;;;;;;;26.60;53.70;;;;;;5000485;28;19965;-80
2022/07/22 08:17:18;;;;;;;;;;;26.60;53.70;;;;;;4999748;28;20352;-79
2022/07/22 08:19:44;;;;;;;;;;;26.60;53.60;;;;;;4998512;28;19980;-79
2022/07/22 08:22:11;;;;;;;;;;;26.60;53.60;;;;;;4998183;28;20034;-79
2022/07/22 08:24:38;;;;;;;;;;;26.60;53.60;;;;;;4996679;28;19961;-77
2022/07/22 08:27:06;;;;;;;;;;;26.60;53.60;;;;;;4996049;28;19972;-78
2022/07/22 08:29:32;;;;;;;;;;;26.60;53.60;;;;;;4996159;28;20021;-78
2022/07/22 08:31:59;;;;;;;;;;;26.60;53.60;;;;;;4996096;28;20024;-78
2022/07/22 08:34:26;;;;;;;;;;;26.60;53.60;;;;;;4995770;28;20013;-78
2022/07/22 08:36:53;;;;;;;;;;;26.60;53.60;;;;;;4998429;28;19976;-78
2022/07/22 08:39:20;;;;;;;;;;;26.60;53.60;;;;;;5001509;28;20408;-78
2022/07/22 08:41:47;;;;;;;;;;;26.60;53.60;;;;;;5001161;28;20392;-78
2022/07/22 08:44:16;;;;;;;;;;;26.60;53.60;;;;;;5000830;28;19925;-77
2022/07/22 08:46:44;;;;;;;;;;;26.60;53.60;;;;;;4995586;28;20457;-78
2022/07/22 08:49:13;;;;;;;;;;;26.60;53.60;;;;;;4996406;28;19992;-77
2022/07/22 08:51:40;;;;;;;;;;;26.60;53.60;;;;;;4995748;28;19980;-77
2022/07/22 08:54:07;;;;;;;;;;;26.60;53.70;;;;;;4995401;28;20016;-77
2022/07/22 08:56:33;;;;;;;;;;;26.60;53.70;;;;;;4995473;28;20008;-77
2022/07/22 08:59:00;;;;;;;;;;;26.60;53.70;;;;;;4996244;28;20025;-77
2022/07/22 09:01:28;;;;;;;;;;;26.60;53.80;;;;;;4996147;28;19925;-77
2022/07/22 09:03:57;;;;;;;;;;;26.60;53.80;;;;;;4996351;28;19969;-77
2022/07/22 09:06:24;;;;;;;;;;;26.60;53.80;;;;;;4995428;28;20020;-77
2022/07/22 09:08:55;;;;;;;;;;;26.60;53.80;;;;;;4995149;28;20364;-76
2022/07/22 09:11:23;;;;;;;;;;;26.60;53.80;;;;;;4995160;28;20079;-76
2022/07/22 09:13:51;;;;;;;;;;;26.60;53.90;;;;;;4995308;28;20004;-76
2022/07/22 09:16:17;;;;;;;;;;;26.60;53.90;;;;;;4995247;28;19925;-76
2022/07/22 09:18:50;;;;;;;;;;;26.60;53.90;;;;;;4994977;28;19980;-75
2022/07/22 09:21:17;;;;;;;;;;;26.70;54.00;;;;;;4994950;28;20021;-76
2022/07/22 09:23:44;;;;;;;;;;;26.70;54.10;;;;;;4995226;28;20017;-75
2022/07/22 09:26:30;;;;;;;;;;;26.70;54.10;;;;;;4995030;28;20029;-76
2022/07/22 09:28:57;;;;;;;;;;;26.70;54.10;;;;;;4994814;28;19933;-77
2022/07/22 09:31:25;;;;;;;;;;;26.70;54.10;;;;;;4995008;28;19934;-76
2022/07/22 09:33:54;;;;;;;;;;;26.70;54.20;;;;;;4994975;28;20290;-76
2022/07/22 09:36:21;;;;;;;;;;;26.70;54.20;;;;;;4994951;28;20259;-77
2022/07/22 09:38:47;;;;;;;;;;;26.70;54.20;;;;;;4994924;28;20008;-77
2022/07/22 09:41:14;;;;;;;;;;;26.70;54.20;;;;;;4994950;28;20020;-76
2022/07/22 09:43:41;;;;;;;;;;;26.70;54.20;;;;;;4994505;28;19926;-76
2022/07/22 09:46:09;;;;;;;;;;;26.70;54.20;;;;;;4994715;28;19972;-78
2022/07/22 09:48:36;;;;;;;;;;;26.70;54.20;;;;;;4994828;28;19930;-76
2022/07/22 09:51:04;;;;;;;;;;;26.70;54.30;;;;;;4994545;28;20008;-76
2022/07/22 09:53:31;;;;;;;;;;;26.70;54.50;;;;;;4994769;28;20021;-76
2022/07/22 09:55:58;;;;;;;;;;;26.70;54.50;;;;;;4994742;28;19972;-77
2022/07/22 09:58:25;;;;;;;;;;;26.70;54.40;;;;;;4994513;28;20385;-77
2022/07/22 10:00:52;;;;;;;;;;;26.70;54.40;;;;;;4994867;28;20016;-75
2022/07/22 10:03:22;;;;;;;;;;;26.70;54.40;;;;;;4994754;28;19973;-76
2022/07/22 10:05:49;;;;;;;;;;;26.70;54.50;;;;;;4993685;28;20025;-77
2022/07/22 10:08:17;;;;;;;;;;;26.70;54.60;;;;;;4994552;28;20013;-76
2022/07/22 10:10:44;;;;;;;;;;;26.80;54.60;;;;;;4994669;28;19976;-76
2022/07/22 10:13:11;;;;;;;;;;;26.80;54.70;;;;;;4994365;28;20021;-76
2022/07/22 10:15:38;;;;;;;;;;;26.80;54.70;;;;;;4994633;28;20300;-76
2022/07/22 10:18:06;;;;;;;;;;;26.80;54.70;;;;;;4994807;28;20013;-78
2022/07/22 10:20:33;;;;;;;;;;;26.80;54.70;;;;;;4995921;28;20389;-79
2022/07/22 10:23:01;;;;;;;;;;;26.80;54.70;;;;;;4995960;28;19980;-79
2022/07/22 10:25:30;;;;;;;;;;;26.80;54.60;;;;;;4996197;28;19973;-79
2022/07/22 10:27:58;;;;;;;;;;;26.80;54.60;;;;;;4998003;28;20366;-79
2022/07/22 10:30:26;;;;;;;;;;;26.80;54.60;;;;;;4996987;28;19973;-79
2022/07/22 10:33:07;;;;;;;;;;;26.80;54.50;;;;;;4994512;28;20021;-78
2022/07/22 10:35:35;;;;;;;;;;;26.80;54.60;;;;;;4992222;28;20390;-78
2022/07/22 10:38:04;;;;;;;;;;;26.80;54.60;;;;;;4994699;28;20000;-78
2022/07/22 10:40:33;;;;;;;;;;;26.80;54.60;;;;;;4994744;28;19973;-79
2022/07/22 10:43:20;;;;;;;;;;;26.80;54.50;;;;;;4994689;28;19980;-78
2022/07/22 10:45:48;;;;;;;;;;;26.80;54.50;;;;;;4994372;28;19980;-78
2022/07/22 10:48:16;;;;;;;;;;;26.80;54.50;;;;;;4994606;28;20262;-78
2022/07/22 10:50:44;;;;;;;;;;;26.80;54.50;;;;;;4994368;28;19932;-77
2022/07/22 10:53:11;;;;;;;;;;;26.80;54.50;;;;;;4994780;28;20017;-78
2022/07/22 10:55:40;;;;;;;;;;;26.80;54.50;;;;;;4995321;28;19972;-77
2022/07/22 10:58:21;;;;;;;;;;;26.80;54.60;;;;;;4994174;28;19968;-78
2022/07/22 11:00:48;;;;;;;;;;;26.90;54.70;;;;;;4986848;28;19930;-77
2022/07/22 11:03:24;;;;;;;;;;;26.90;54.70;;;;;;4998011;28;19933;-78
2022/07/22 11:05:51;;;;;;;;;;;26.90;54.70;;;;;;4996118;28;20052;-77
2022/07/22 11:08:18;;;;;;;;;;;26.90;54.70;;;;;;4995789;28;20013;-77
2022/07/22 11:10:49;;;;;;;;;;;26.90;54.70;;;;;;4996289;28;20020;-77
2022/07/22 11:13:31;;;;;;;;;;;26.90;54.70;;;;;;4996937;28;20289;-77
2022/07/22 11:15:57;;;;;;;;;;;26.90;54.60;;;;;;5002817;28;19925;-78
2022/07/22 11:18:24;;;;;;;;;;;26.90;54.60;;;;;;5006194;28;19937;-78
2022/07/22 11:20:51;;;;;;;;;;;26.90;54.60;;;;;;5007915;28;19925;-79
2022/07/22 11:23:17;;;;;;;;;;;26.90;54.60;;;;;;5007433;28;19973;-79
2022/07/22 11:25:44;;;;;;;;;;;26.90;54.60;;;;;;5009398;28;19952;-79
2022/07/22 11:28:13;;;;;;;;;;;26.90;54.50;;;;;;5008774;28;19940;-79
2022/07/22 11:30:39;;;;;;;;;;;26.90;54.50;;;;;;5006653;28;19926;-79
2022/07/22 11:33:08;;;;;;;;;;;26.90;54.50;;;;;;5008564;28;20289;-79
2022/07/22 11:35:37;;;;;;;;;;;26.90;54.50;;;;;;5010125;28;19930;-79
2022/07/22 11:38:04;;;;;;;;;;;27.00;54.50;;;;;;5008658;28;19926;-79
2022/07/22 11:40:33;;;;;;;;;;;26.90;54.40;;;;;;5007932;28;19926;-79
2022/07/22 11:43:03;;;;;;;;;;;26.90;54.40;;;;;;5006920;28;19932;-77
2022/07/22 11:45:31;;;;;;;;;;;27.00;54.50;;;;;;5004137;28;19926;-80
2022/07/22 11:47:57;;;;;;;;;;;26.90;54.40;;;;;;5004371;28;19969;-80
2022/07/22 11:50:30;;;;;;;;;;;27.00;54.40;;;;;;5005081;28;20393;-80
2022/07/22 11:52:57;;;;;;;;;;;27.00;54.40;;;;;;5005521;28;19932;-80
2022/07/22 11:55:24;;;;;;;;;;;27.00;55.00;;;;;;5002648;28;19977;-80
2022/07/22 11:57:51;;;;;;;;;;;27.00;54.40;;;;;;4998801;28;19969;-79
2022/07/22 12:00:18;;;;;;;;;;;27.00;54.40;;;;;;4999693;28;20020;-79
2022/07/22 12:02:46;;;;;;;;;;;27.00;54.40;;;;;;5003454;28;19926;-79
2022/07/22 12:05:13;;;;;;;;;;;27.00;54.30;;;;;;4999176;28;19972;-79
2022/07/22 12:07:40;;;;;;;;;;;27.00;54.30;;;;;;4999324;28;20017;-82
2022/07/22 12:10:07;;;;;;;;;;;27.00;54.30;;;;;;4999726;28;19925;-80
2022/07/22 12:12:41;;;;;;;;;;;27.00;54.30;;;;;;4999158;28;19925;-80
2022/07/22 12:15:08;;;;;;;;;;;27.00;54.20;;;;;;4999760;28;19938;-80
2022/07/22 12:17:35;;;;;;;;;;;27.00;54.20;;;;;;5000557;28;19925;-81
2022/07/22 12:51:44;;;;;;;;;;;27.00;53.30;;;;;;6146197;23;20972;31
2022/07/22 12:54:12;;;;;;;;;;;27.00;53.20;;;;;;4955659;29;20392;-79
2022/07/22 12:56:39;;;;;;;;;;;27.00;53.20;;;;;;4958632;28;20370;-78
2022/07/22 12:59:06;;;;;;;;;;;27.00;53.20;;;;;;4958588;28;19933;-78
2022/07/22 13:01:33;;;;;;;;;;;27.10;53.20;;;;;;4958658;28;19933;-79
2022/07/22 13:03:59;;;;;;;;;;;27.10;53.10;;;;;;4961332;29;19970;-79
2022/07/22 13:06:26;;;;;;;;;;;27.10;53.10;;;;;;4960084;29;19977;-79
2022/07/22 13:08:53;;;;;;;;;;;27.10;53.00;;;;;;5016472;23;19976;-79
2022/07/22 13:11:21;;;;;;;;;;;27.10;52.90;;;;;;4996208;28;20020;-81
2022/07/22 13:13:47;;;;;;;;;;;27.10;52.90;;;;;;4995968;28;20277;-82
2022/07/22 13:16:14;;;;;;;;;;;27.10;52.80;;;;;;4996359;28;19933;-82
2022/07/22 13:18:41;;;;;;;;;;;27.10;52.70;;;;;;4995672;28;20377;-82
2022/07/22 13:21:08;;;;;;;;;;;27.10;52.60;;;;;;4995989;28;19932;-81
2022/07/22 13:23:34;;;;;;;;;;;27.10;52.60;;;;;;4996307;28;20012;-82
2022/07/22 13:26:01;;;;;;;;;;;27.10;52.50;;;;;;4996148;28;20028;-82
2022/07/22 13:28:29;;;;;;;;;;;27.20;52.60;;;;;;4995750;28;19926;-82
2022/07/22 13:30:55;;;;;;;;;;;27.20;52.60;;;;;;4995695;28;19932;-82
2022/07/22 13:33:22;;;;;;;;;;;27.20;52.60;;;;;;4995504;28;20389;-82
2022/07/22 13:35:49;;;;;;;;;;;27.20;52.60;;;;;;4995520;28;19940;-82
2022/07/22 13:38:16;;;;;;;;;;;27.20;52.60;;;;;;4995527;28;20434;-82
2022/07/22 13:40:49;;;;;;;;;;;27.20;52.60;;;;;;4994436;28;20400;-82
2022/07/22 13:43:16;;;;;;;;;;;27.20;52.60;;;;;;4995692;28;19985;-82
2022/07/22 13:45:44;;;;;;;;;;;27.30;52.60;;;;;;4995195;28;19961;-82
2022/07/22 13:48:11;;;;;;;;;;;27.30;52.60;;;;;;4996468;28;20024;-82
2022/07/22 13:50:38;;;;;;;;;;;27.30;52.60;;;;;;4996061;28;20012;-82
2022/07/22 13:53:04;;;;;;;;;;;27.30;52.50;;;;;;4997760;28;19975;-82
2022/07/22 13:55:31;;;;;;;;;;;27.30;52.30;;;;;;4995247;28;19992;-82
2022/07/22 13:57:58;;;;;;;;;;;27.30;52.10;;;;;;4995920;28;19932;-82
2022/07/22 14:00:25;;;;;;;;;;;27.30;52.00;;;;;;4995912;28;19926;-82
2022/07/22 14:02:53;;;;;;;;;;;27.30;51.90;;;;;;4995081;28;19933;-82
2022/07/22 14:05:19;;;;;;;;;;;27.30;51.70;;;;;;4994992;28;19932;-82
2022/07/22 14:07:46;;;;;;;;;;;27.30;51.50;;;;;;4994638;28;19932;-82
2022/07/22 14:10:13;;;;;;;;;;;27.30;51.40;;;;;;4994948;28;19926;-82
2022/07/22 14:12:39;;;;;;;;;;;27.30;51.20;;;;;;4994955;28;19926;-82
2022/07/22 14:15:07;;;;;;;;;;;27.30;51.00;;;;;;4995185;28;19961;-82
2022/07/22 14:17:34;;;;;;;;;;;27.30;50.90;;;;;;4995291;28;19925;-82
2022/07/22 14:20:03;;;;;;;;;;;27.30;50.70;;;;;;4995614;28;20032;-81
2022/07/22 14:22:30;;;;;;;;;;;27.30;50.50;;;;;;4995455;28;19926;-82
2022/07/22 14:24:57;;;;;;;;;;;27.30;50.30;;;;;;4994721;28;19926;-82
2022/07/22 14:27:23;;;;;;;;;;;27.20;50.10;;;;;;4994466;28;19977;-81
2022/07/22 14:29:50;;;;;;;;;;;27.20;49.90;;;;;;4994709;28;19965;-81
2022/07/22 14:32:17;;;;;;;;;;;27.20;49.70;;;;;;4994960;28;19932;-81
2022/07/22 14:34:43;;;;;;;;;;;27.20;49.60;;;;;;4994564;28;19965;-81
2022/07/22 14:37:11;;;;;;;;;;;27.20;49.40;;;;;;4994801;28;20377;-81
2022/07/22 14:39:38;;;;;;;;;;;27.20;49.30;;;;;;4995394;28;19926;-81
2022/07/22 14:42:05;;;;;;;;;;;27.20;49.10;;;;;;4995570;28;19925;-81
2022/07/22 14:44:32;;;;;;;;;;;27.20;49.00;;;;;;5001268;28;19964;-85
2022/07/22 14:46:58;;;;;;;;;;;27.20;48.80;;;;;;5006950;28;19953;-87
2022/07/22 14:49:25;;;;;;;;;;;27.20;48.70;;;;;;5002945;28;19985;-86
2022/07/22 14:51:52;;;;;;;;;;;27.20;48.60;;;;;;5004399;28;20025;-87
2022/07/22 14:54:20;;;;;;;;;;;27.20;49.00;;;;;;5014389;28;19933;-87
2022/07/22 14:56:47;;;;;;;;;;;27.20;48.20;;;;;;5021151;28;19972;-87
2022/07/22 14:59:13;;;;;;;;;;;27.20;48.10;;;;;;5017250;28;19932;-86
2022/07/22 15:01:40;;;;;;;;;;;27.20;48.00;;;;;;5013967;28;19953;-86
2022/07/22 15:04:10;;;;;;;;;;;27.20;47.90;;;;;;5012922;28;19968;-86
2022/07/22 15:06:43;;;;;;;;;;;27.20;47.70;;;;;;5014528;28;19932;-86
2022/07/22 15:09:09;;;;;;;;;;;27.20;47.60;;;;;;5016831;28;19933;-85
2022/07/22 15:11:37;;;;;;;;;;;27.20;47.60;;;;;;5017250;28;19930;-85
2022/07/22 15:14:04;;;;;;;;;;;27.20;47.60;;;;;;5014973;28;19953;-86
2022/07/22 15:16:31;;;;;;;;;;;27.20;47.60;;;;;;5015399;28;19933;-86
2022/07/22 15:18:57;;;;;;;;;;;27.20;47.60;;;;;;5015224;28;19926;-86
2022/07/22 15:21:24;;;;;;;;;;;27.20;47.60;;;;;;5013265;28;19964;-86
2022/07/22 15:23:51;;;;;;;;;;;27.20;47.60;;;;;;5013586;28;19948;-86
2022/07/22 15:26:18;;;;;;;;;;;27.20;47.50;;;;;;5012498;28;19949;-85
2022/07/22 15:28:47;;;;;;;;;;;27.20;47.40;;;;;;5012281;28;20353;-85
2022/07/22 15:31:14;;;;;;;;;;;27.20;47.30;;;;;;5013077;28;20400;-86
2022/07/22 15:33:40;;;;;;;;;;;27.20;47.20;;;;;;5012083;28;19969;-86
2022/07/22 15:36:08;;;;;;;;;;;27.20;47.10;;;;;;5013380;28;19965;-86
2022/07/22 15:38:35;;;;;;;;;;;27.20;47.00;;;;;;5013449;28;20305;-86
2022/07/22 15:41:01;;;;;;;;;;;27.20;46.90;;;;;;5012015;28;19957;-86
2022/07/22 15:43:28;;;;;;;;;;;27.20;46.80;;;;;;5012723;28;19964;-86
2022/07/22 15:45:56;;;;;;;;;;;27.20;46.80;;;;;;5011183;28;19965;-86
2022/07/22 15:48:23;;;;;;;;;;;27.20;46.70;;;;;;5010833;28;19930;-85
2022/07/22 15:50:50;;;;;;;;;;;27.20;46.60;;;;;;5011857;28;19965;-86
2022/07/22 15:53:16;;;;;;;;;;;27.20;46.50;;;;;;5008295;28;19964;-86
2022/07/22 15:55:43;;;;;;;;;;;27.20;46.40;;;;;;5010298;28;19968;-86
2022/07/22 16:00:55;;;;;;;;;;;27.20;46.30;;;;;;5010588;28;19928;-86
2022/07/22 16:03:22;;;;;;;;;;;27.10;46.10;;;;;;5010872;28;20416;-86
2022/07/22 16:05:49;;;;;;;;;;;27.20;46.10;;;;;;5009577;28;19926;-85
2022/07/22 16:08:15;;;;;;;;;;;27.20;46.10;;;;;;5008134;28;20029;-85
2022/07/22 16:10:42;;;;;;;;;;;27.20;46.00;;;;;;5006114;28;20412;-86
2022/07/22 16:13:09;;;;;;;;;;;27.20;45.90;;;;;;5006845;28;19968;-86
2022/07/22 16:15:36;;;;;;;;;;;27.10;45.80;;;;;;5008573;28;19933;-86
2022/07/22 16:18:04;;;;;;;;;;;27.20;45.80;;;;;;5004744;28;19969;-86
2022/07/22 16:20:30;;;;;;;;;;;27.20;45.80;;;;;;5005901;28;20384;-86
2022/07/22 16:22:57;;;;;;;;;;;27.20;45.70;;;;;;5005863;28;19953;-87
2022/07/22 16:25:24;;;;;;;;;;;27.20;45.60;;;;;;5007081;28;20010;-85
2022/07/22 16:27:50;;;;;;;;;;;27.20;45.60;;;;;;5004107;28;19948;-87
2022/07/22 16:30:17;;;;;;;;;;;27.20;45.50;;;;;;5002494;28;20016;-86
2022/07/22 16:32:44;;;;;;;;;;;27.20;45.50;;;;;;5001736;28;20125;-87
2022/07/22 16:35:12;;;;;;;;;;;27.20;45.40;;;;;;5000031;28;19925;-87
2022/07/22 16:37:38;;;;;;;;;;;27.20;45.40;;;;;;4998805;28;19980;-87
2022/07/22 16:40:06;;;;;;;;;;;27.20;45.40;;;;;;5007961;28;19949;-87
2022/07/22 16:42:32;;;;;;;;;;;27.20;45.30;;;;;;4999010;28;20009;-87
2022/07/22 16:44:59;;;;;;;;;;;27.20;45.30;;;;;;5002817;28;19988;-86
2022/07/22 16:47:28;;;;;;;;;;;27.20;45.30;;;;;;5001566;28;19968;-87
2022/07/22 16:49:54;;;;;;;;;;;27.20;45.30;;;;;;4999043;28;19930;-87
2022/07/22 16:52:23;;;;;;;;;;;27.20;45.30;;;;;;4999527;28;20020;-87
2022/07/22 16:54:50;;;;;;;;;;;27.20;45.20;;;;;;4998613;28;20285;-87
2022/07/22 16:57:16;;;;;;;;;;;27.20;45.20;;;;;;5003454;28;20293;-87
2022/07/22 16:59:43;;;;;;;;;;;27.20;45.20;;;;;;5000258;28;20008;-87
2022/07/22 17:02:12;;;;;;;;;;;27.20;45.10;;;;;;4998717;28;20369;-87
2022/07/22 17:04:39;;;;;;;;;;;27.20;45.10;;;;;;4998991;28;19926;-87
2022/07/22 17:07:05;;;;;;;;;;;27.20;45.10;;;;;;4997351;28;19932;-87
2022/07/22 17:09:34;;;;;;;;;;;27.20;45.10;;;;;;4997891;28;20040;-87
2022/07/22 17:12:01;;;;;;;;;;;27.20;45.10;;;;;;4997553;28;19926;-87
2022/07/22 17:14:27;;;;;;;;;;;27.20;45.00;;;;;;4997229;28;19926;-87
2022/07/22 17:16:54;;;;;;;;;;;27.20;45.10;;;;;;4997406;28;20020;-87
2022/07/22 17:19:21;;;;;;;;;;;27.20;45.00;;;;;;4997638;28;20020;-87
2022/07/22 17:21:47;;;;;;;;;;;27.20;45.00;;;;;;5000559;28;20025;-85
2022/07/22 17:24:14;;;;;;;;;;;27.20;45.00;;;;;;4999302;28;19973;-87
2022/07/22 17:26:42;;;;;;;;;;;27.20;45.00;;;;;;4995293;28;20008;-88
2022/07/22 17:29:09;;;;;;;;;;;27.10;44.90;;;;;;4995184;28;19925;-88
2022/07/22 17:31:36;;;;;;;;;;;27.10;44.80;;;;;;4995011;28;19937;-88
2022/07/22 17:34:02;;;;;;;;;;;27.20;44.90;;;;;;4995538;28;19926;-88
2022/07/22 17:36:29;;;;;;;;;;;27.10;44.80;;;;;;4995284;28;20016;-88
2022/07/22 17:38:56;;;;;;;;;;;27.10;44.70;;;;;;4995198;28;19925;-88
2022/07/22 17:41:23;;;;;;;;;;;27.10;44.70;;;;;;4996145;28;19926;-88
2022/07/22 17:43:51;;;;;;;;;;;27.10;44.70;;;;;;4995443;28;19926;-88
2022/07/22 17:46:18;;;;;;;;;;;27.10;44.70;;;;;;4995436;28;20012;-88
2022/07/22 17:48:45;;;;;;;;;;;27.10;44.60;;;;;;4994662;28;20428;-88
2022/07/22 17:51:11;;;;;;;;;;;27.10;44.60;;;;;;4995261;28;20353;-88
2022/07/22 17:53:38;;;;;;;;;;;27.10;44.50;;;;;;4995491;28;19926;-87
2022/07/22 17:56:05;;;;;;;;;;;27.10;44.50;;;;;;4994993;28;20421;-88
2022/07/22 17:58:32;;;;;;;;;;;27.10;44.50;;;;;;4995048;28;20381;-88
2022/07/22 18:01:00;;;;;;;;;;;27.10;44.40;;;;;;4994999;28;20008;-88
2022/07/22 18:03:27;;;;;;;;;;;27.10;44.40;;;;;;4995187;28;19941;-88
2022/07/22 18:05:55;;;;;;;;;;;27.10;44.30;;;;;;4995783;28;20334;-85
2022/07/22 18:08:22;;;;;;;;;;;27.10;44.30;;;;;;4994260;28;19925;-88
2022/07/22 18:10:48;;;;;;;;;;;27.10;44.30;;;;;;4994844;28;20042;-88
2022/07/22 18:13:16;;;;;;;;;;;27.10;44.20;;;;;;4995378;28;20020;-87
2022/07/22 18:15:43;;;;;;;;;;;27.10;44.20;;;;;;4995533;28;20024;-88
2022/07/22 18:18:11;;;;;;;;;;;27.10;44.20;;;;;;4994964;28;19988;-87
2022/07/22 18:20:37;;;;;;;;;;;27.10;44.20;;;;;;4994629;28;19969;-87
2022/07/22 18:23:04;;;;;;;;;;;27.10;44.10;;;;;;4994594;28;19961;-88
2022/07/22 18:25:31;;;;;;;;;;;27.10;44.10;;;;;;4996331;28;19973;-86
2022/07/22 18:27:57;;;;;;;;;;;27.10;44.10;;;;;;4998848;28;20353;-87
2022/07/22 18:30:24;;;;;;;;;;;27.10;44.00;;;;;;4998689;28;20017;-88
2022/07/22 18:32:51;;;;;;;;;;;27.10;44.00;;;;;;4998863;28;20472;-86
2022/07/22 18:35:19;;;;;;;;;;;27.10;44.00;;;;;;4999061;28;20445;-86
2022/07/22 18:37:45;;;;;;;;;;;27.10;44.00;;;;;;4999347;28;20020;-86
2022/07/22 18:40:12;;;;;;;;;;;27.10;43.90;;;;;;4999738;28;20013;-86
2022/07/22 18:42:39;;;;;;;;;;;27.10;43.90;;;;;;5001243;28;20012;-86
2022/07/22 18:45:06;;;;;;;;;;;27.10;43.90;;;;;;5000340;28;20029;-86
2022/07/22 18:47:33;;;;;;;;;;;27.10;43.90;;;;;;5000097;28;20020;-86
2022/07/22 18:49:59;;;;;;;;;;;27.10;43.90;;;;;;4999404;28;20028;-87
2022/07/22 18:52:28;;;;;;;;;;;27.10;43.80;;;;;;4999120;28;20468;-87
2022/07/22 18:54:55;;;;;;;;;;;27.10;43.90;;;;;;4999976;28;19992;-87
2022/07/22 18:57:21;;;;;;;;;;;27.10;43.80;;;;;;4999001;28;20020;-87
2022/07/22 18:59:48;;;;;;;;;;;27.10;43.80;;;;;;4998734;28;20016;-87
2022/07/22 19:02:15;;;;;;;;;;;27.10;43.80;;;;;;4999261;28;19944;-87
2022/07/22 19:04:42;;;;;;;;;;;27.10;43.80;;;;;;4998744;28;20008;-87
2022/07/22 19:07:08;;;;;;;;;;;27.10;43.80;;;;;;4998763;28;19937;-87
2022/07/22 19:09:36;;;;;;;;;;;27.10;43.80;;;;;;5025125;23;20414;-82
2022/07/22 19:12:03;;;;;;;;;;;27.10;43.80;;;;;;4999084;28;19988;-83
2022/07/22 19:14:30;;;;;;;;;;;27.10;43.70;;;;;;4999728;28;19988;-82
2022/07/22 19:16:56;;;;;;;;;;;27.00;43.60;;;;;;5000856;28;19998;-83